sensor_id;sensor_type;location;lat;lon;timestamp;pressure;altitude;pressure_sealevel;temperature;humidity
72570;BME280;60594;50.204;8.844;2023-03-02T00:00:00;100503.75;;;0.81;68.11
72570;BME280;60594;50.204;8.844;2023-03-02T00:02:27;100504.00;;;0.75;69.31
72570;BME280;60594;50.204;8.844;2023-03-02T00:04:57;100500.53;;;0.73;69.26
72570;BME280;60594;50.204;8.844;2023-03-02T00:07:29;100497.25;;;0.68;69.71
72570;BME280;60594;50.204;8.844;2023-03-02T00:09:58;100499.59;;;0.51;69.98
72570;BME280;60594;50.204;8.844;2023-03-02T00:12:28;100500.00;;;0.15;72.21
72570;BME280;60594;50.204;8.844;2023-03-02T00:14:56;100500.53;;;0.24;71.62
72570;BME280;60594;50.204;8.844;2023-03-02T00:17:23;100498.03;;;0.21;72.25
72570;BME280;60594;50.204;8.844;2023-03-02T00:19:54;100495.34;;;0.23;72.81
72570;BME280;60594;50.204;8.844;2023-03-02T00:22:38;100496.00;;;0.03;73.17
72570;BME280;60594;50.204;8.844;2023-03-02T00:25:05;100485.88;;;0.19;72.38
72570;BME280;60594;50.204;8.844;2023-03-02T00:27:32;100492.59;;;0.27;71.17
72570;BME280;60594;50.204;8.844;2023-03-02T00:29:59;100497.81;;;0.27;72.64
72570;BME280;60594;50.204;8.844;2023-03-02T00:32:25;100502.59;;;0.41;71.40
72570;BME280;60594;50.204;8.844;2023-03-02T00:34:52;100503.41;;;0.17;71.76
72570;BME280;60594;50.204;8.844;2023-03-02T00:37:19;100494.72;;;0.16;71.59
72570;BME280;60594;50.204;8.844;2023-03-02T00:39:45;100497.97;;;0.23;71.63
72570;BME280;60594;50.204;8.844;2023-03-02T00:42:12;100495.53;;;0.17;72.73
72570;BME280;60594;50.204;8.844;2023-03-02T00:44:38;100484.31;;;0.13;73.03
72570;BME280;60594;50.204;8.844;2023-03-02T00:47:04;100489.31;;;0.21;70.84
72570;BME280;60594;50.204;8.844;2023-03-02T00:49:31;100492.72;;;0.23;72.31
72570;BME280;60594;50.204;8.844;2023-03-02T00:51:57;100479.69;;;0.21;71.05
72570;BME280;60594;50.204;8.844;2023-03-02T00:54:24;100480.22;;;0.31;70.70
72570;BME280;60594;50.204;8.844;2023-03-02T00:56:51;100477.78;;;0.26;71.41
72570;BME280;60594;50.204;8.844;2023-03-02T00:59:18;100477.94;;;0.22;71.14
72570;BME280;60594;50.204;8.844;2023-03-02T01:02:07;100460.84;;;0.10;71.22
72570;BME280;60594;50.204;8.844;2023-03-02T01:04:37;100465.16;;;0.11;71.38
72570;BME280;60594;50.204;8.844;2023-03-02T01:07:11;100458.22;;;0.10;72.07
72570;BME280;60594;50.204;8.844;2023-03-02T01:09:39;100466.19;;;0.07;71.45
72570;BME280;60594;50.204;8.844;2023-03-02T01:12:06;100468.00;;;0.05;72.58
72570;BME280;60594;50.204;8.844;2023-03-02T01:14:36;100452.50;;;-0.01;71.28
72570;BME280;60594;50.204;8.844;2023-03-02T01:17:04;100456.03;;;-0.02;72.21
72570;BME280;60594;50.204;8.844;2023-03-02T01:19:32;100453.72;;;-0.11;73.42
72570;BME280;60594;50.204;8.844;2023-03-02T01:21:58;100452.59;;;-0.04;72.72
72570;BME280;60594;50.204;8.844;2023-03-02T01:24:25;100456.66;;;0.04;71.51
72570;BME280;60594;50.204;8.844;2023-03-02T01:26:52;100442.88;;;-0.01;72.46
72570;BME280;60594;50.204;8.844;2023-03-02T01:29:19;100444.34;;;0.08;72.71
72570;BME280;60594;50.204;8.844;2023-03-02T01:31:45;100437.38;;;0.07;73.19
72570;BME280;60594;50.204;8.844;2023-03-02T01:34:12;100432.03;;;0.10;72.34
72570;BME280;60594;50.204;8.844;2023-03-02T01:36:38;100432.94;;;0.09;70.92
72570;BME280;60594;50.204;8.844;2023-03-02T01:39:05;100432.19;;;0.05;72.56
72570;BME280;60594;50.204;8.844;2023-03-02T01:41:31;100421.59;;;0.08;72.19
72570;BME280;60594;50.204;8.844;2023-03-02T01:43:58;100430.91;;;0.17;71.31
72570;BME280;60594;50.204;8.844;2023-03-02T01:46:26;100429.84;;;0.23;71.41
72570;BME280;60594;50.204;8.844;2023-03-02T01:49:10;100424.56;;;0.24;71.75
72570;BME280;60594;50.204;8.844;2023-03-02T01:51:50;100417.28;;;0.32;70.78
72570;BME280;60594;50.204;8.844;2023-03-02T01:54:20;100413.31;;;0.45;70.81
72570;BME280;60594;50.204;8.844;2023-03-02T01:56:52;100422.44;;;0.58;70.27
72570;BME280;60594;50.204;8.844;2023-03-02T01:59:21;100409.22;;;0.61;68.82
72570;BME280;60594;50.204;8.844;2023-03-02T02:01:54;100417.66;;;0.69;69.44
72570;BME280;60594;50.204;8.844;2023-03-02T02:04:22;100423.25;;;0.83;68.22
72570;BME280;60594;50.204;8.844;2023-03-02T02:06:54;100412.97;;;0.77;68.67
72570;BME280;60594;50.204;8.844;2023-03-02T02:09:22;100412.31;;;0.72;68.94
72570;BME280;60594;50.204;8.844;2023-03-02T02:11:51;100410.56;;;0.73;68.17
72570;BME280;60594;50.204;8.844;2023-03-02T02:14:17;100395.53;;;0.76;68.43
72570;BME280;60594;50.204;8.844;2023-03-02T02:16:44;100400.69;;;0.79;68.66
72570;BME280;60594;50.204;8.844;2023-03-02T02:22:14;100408.66;;;0.76;69.85
72570;BME280;60594;50.204;8.844;2023-03-02T02:24:45;100396.31;;;0.80;69.47
72570;BME280;60594;50.204;8.844;2023-03-02T02:27:14;100405.63;;;0.87;68.54
72570;BME280;60594;50.204;8.844;2023-03-02T02:29:44;100399.25;;;0.71;68.56
72570;BME280;60594;50.204;8.844;2023-03-02T02:32:22;100402.31;;;0.82;68.78
72570;BME280;60594;50.204;8.844;2023-03-02T02:35:11;100388.53;;;0.77;67.81
72570;BME280;60594;50.204;8.844;2023-03-02T02:37:48;100393.94;;;0.49;70.19
72570;BME280;60594;50.204;8.844;2023-03-02T02:40:21;100399.56;;;0.63;69.21
72570;BME280;60594;50.204;8.844;2023-03-02T02:42:50;100390.81;;;0.63;69.26
72570;BME280;60594;50.204;8.844;2023-03-02T02:45:23;100390.66;;;0.67;69.04
72570;BME280;60594;50.204;8.844;2023-03-02T02:47:50;100398.78;;;0.60;69.17
72570;BME280;60594;50.204;8.844;2023-03-02T02:50:27;100389.63;;;0.48;70.34
72570;BME280;60594;50.204;8.844;2023-03-02T02:53:06;100394.00;;;0.48;70.42
72570;BME280;60594;50.204;8.844;2023-03-02T02:55:37;100391.69;;;0.39;71.12
72570;BME280;60594;50.204;8.844;2023-03-02T03:00:51;100383.31;;;0.29;70.97
72570;BME280;60594;50.204;8.844;2023-03-02T03:05:59;100384.38;;;0.24;70.94
72570;BME280;60594;50.204;8.844;2023-03-02T03:08:49;100378.09;;;0.04;73.23
72570;BME280;60594;50.204;8.844;2023-03-02T03:11:29;100384.72;;;0.15;72.15
72570;BME280;60594;50.204;8.844;2023-03-02T03:14:12;100380.44;;;0.12;72.03
72570;BME280;60594;50.204;8.844;2023-03-02T03:16:40;100373.72;;;0.05;72.32
72570;BME280;60594;50.204;8.844;2023-03-02T03:19:15;100384.78;;;-0.12;72.67
72570;BME280;60594;50.204;8.844;2023-03-02T03:21:44;100377.97;;;-0.17;73.08
72570;BME280;60594;50.204;8.844;2023-03-02T03:24:11;100371.63;;;-0.10;73.22
72570;BME280;60594;50.204;8.844;2023-03-02T03:26:37;100374.09;;;-0.06;72.77
72570;BME280;60594;50.204;8.844;2023-03-02T03:29:05;100372.59;;;-0.13;72.51
72570;BME280;60594;50.204;8.844;2023-03-02T03:31:32;100370.84;;;-0.14;73.83
72570;BME280;60594;50.204;8.844;2023-03-02T03:34:00;100380.31;;;-0.10;72.58
72570;BME280;60594;50.204;8.844;2023-03-02T03:36:31;100378.31;;;-0.02;73.08
72570;BME280;60594;50.204;8.844;2023-03-02T03:38:58;100379.63;;;-0.15;73.28
72570;BME280;60594;50.204;8.844;2023-03-02T03:41:25;100375.81;;;-0.05;72.66
72570;BME280;60594;50.204;8.844;2023-03-02T03:43:52;100385.34;;;-0.04;72.63
72570;BME280;60594;50.204;8.844;2023-03-02T03:46:20;100385.94;;;0.04;72.59
72570;BME280;60594;50.204;8.844;2023-03-02T03:48:47;100378.31;;;-0.02;72.21
72570;BME280;60594;50.204;8.844;2023-03-02T03:51:14;100367.06;;;-0.05;73.23
72570;BME280;60594;50.204;8.844;2023-03-02T03:53:41;100365.03;;;0.03;72.54
72570;BME280;60594;50.204;8.844;2023-03-02T03:56:07;100376.19;;;0.10;72.46
72570;BME280;60594;50.204;8.844;2023-03-02T03:58:34;100375.41;;;0.06;72.10
72570;BME280;60594;50.204;8.844;2023-03-02T04:01:01;100378.84;;;0.08;72.02
72570;BME280;60594;50.204;8.844;2023-03-02T04:03:27;100377.34;;;0.01;72.30
72570;BME280;60594;50.204;8.844;2023-03-02T04:05:54;100377.56;;;-0.05;73.55
72570;BME280;60594;50.204;8.844;2023-03-02T04:08:21;100383.16;;;0.09;72.62
72570;BME280;60594;50.204;8.844;2023-03-02T04:10:48;100382.88;;;-0.08;72.66
72570;BME280;60594;50.204;8.844;2023-03-02T04:13:14;100379.06;;;0.02;73.01
72570;BME280;60594;50.204;8.844;2023-03-02T04:15:41;100383.03;;;-0.11;72.46
72570;BME280;60594;50.204;8.844;2023-03-02T04:18:09;100381.38;;;-0.15;73.10
72570;BME280;60594;50.204;8.844;2023-03-02T04:20:36;100383.03;;;-0.11;73.29
72570;BME280;60594;50.204;8.844;2023-03-02T04:23:02;100379.63;;;-0.15;73.18
72570;BME280;60594;50.204;8.844;2023-03-02T04:25:29;100386.56;;;-0.14;73.53
72570;BME280;60594;50.204;8.844;2023-03-02T04:28:01;100378.72;;;-0.14;72.90
72570;BME280;60594;50.204;8.844;2023-03-02T04:30:33;100382.34;;;-0.18;73.92
72570;BME280;60594;50.204;8.844;2023-03-02T04:33:00;100369.34;;;-0.21;73.45
72570;BME280;60594;50.204;8.844;2023-03-02T04:35:28;100369.91;;;-0.37;73.90
72570;BME280;60594;50.204;8.844;2023-03-02T04:37:54;100373.69;;;-0.44;74.36
72570;BME280;60594;50.204;8.844;2023-03-02T04:40:21;100370.06;;;-0.40;74.25
72570;BME280;60594;50.204;8.844;2023-03-02T04:42:47;100374.81;;;-0.53;74.39
72570;BME280;60594;50.204;8.844;2023-03-02T04:45:14;100378.13;;;-0.48;74.61
72570;BME280;60594;50.204;8.844;2023-03-02T04:47:41;100373.00;;;-0.51;74.95
72570;BME280;60594;50.204;8.844;2023-03-02T04:50:09;100380.94;;;-0.54;74.90
72570;BME280;60594;50.204;8.844;2023-03-02T04:52:37;100374.81;;;-0.53;75.23
72570;BME280;60594;50.204;8.844;2023-03-02T04:55:04;100380.72;;;-0.46;74.66
72570;BME280;60594;50.204;8.844;2023-03-02T04:57:32;100379.00;;;-0.47;74.01
72570;BME280;60594;50.204;8.844;2023-03-02T04:59:58;100383.47;;;-0.51;74.39
72570;BME280;60594;50.204;8.844;2023-03-02T05:02:25;100385.19;;;-0.50;74.68
72570;BME280;60594;50.204;8.844;2023-03-02T05:04:51;100389.16;;;-0.38;74.19
72570;BME280;60594;50.204;8.844;2023-03-02T05:07:18;100387.50;;;-0.41;73.25
72570;BME280;60594;50.204;8.844;2023-03-02T05:09:44;100398.03;;;-0.42;73.67
72570;BME280;60594;50.204;8.844;2023-03-02T05:12:11;100396.56;;;-0.51;74.46
72570;BME280;60594;50.204;8.844;2023-03-02T05:14:37;100401.69;;;-0.48;74.17
72570;BME280;60594;50.204;8.844;2023-03-02T05:17:04;100389.75;;;-0.56;74.92
72570;BME280;60594;50.204;8.844;2023-03-02T05:19:30;100375.84;;;-0.57;74.15
72570;BME280;60594;50.204;8.844;2023-03-02T05:21:57;100385.19;;;-0.50;74.13
72570;BME280;60594;50.204;8.844;2023-03-02T05:24:23;100393.84;;;-0.48;74.26
72570;BME280;60594;50.204;8.844;2023-03-02T05:26:50;100392.19;;;-0.50;74.50
72570;BME280;60594;50.204;8.844;2023-03-02T05:29:16;100396.66;;;-0.54;74.56
72570;BME280;60594;50.204;8.844;2023-03-02T05:31:44;100384.47;;;-0.55;73.89
72570;BME280;60594;50.204;8.844;2023-03-02T05:34:13;100394.34;;;-0.63;74.75
72570;BME280;60594;50.204;8.844;2023-03-02T05:36:42;100390.91;;;-0.65;75.06
72570;BME280;60594;50.204;8.844;2023-03-02T05:39:10;100389.97;;;-0.62;75.20
72570;BME280;60594;50.204;8.844;2023-03-02T05:41:38;100404.72;;;-0.60;74.76
72570;BME280;60594;50.204;8.844;2023-03-02T05:44:06;100398.66;;;-0.62;74.75
72570;BME280;60594;50.204;8.844;2023-03-02T05:46:34;100403.09;;;-0.64;75.05
72570;BME280;60594;50.204;8.844;2023-03-02T05:49:01;100411.66;;;-0.59;74.97
72570;BME280;60594;50.204;8.844;2023-03-02T05:51:27;100411.69;;;-0.60;74.11
72570;BME280;60594;50.204;8.844;2023-03-02T05:53:54;100411.56;;;-0.56;74.53
72570;BME280;60594;50.204;8.844;2023-03-02T05:56:20;100407.34;;;-0.60;75.19
72570;BME280;60594;50.204;8.844;2023-03-02T05:58:47;100413.00;;;-0.73;75.64
72570;BME280;60594;50.204;8.844;2023-03-02T06:01:14;100406.94;;;-0.75;75.03
72570;BME280;60594;50.204;8.844;2023-03-02T06:03:41;100409.13;;;-0.62;74.39
72570;BME280;60594;50.204;8.844;2023-03-02T06:06:08;100406.03;;;-0.74;75.70
72570;BME280;60594;50.204;8.844;2023-03-02T06:08:39;100407.47;;;-0.64;74.70
72570;BME280;60594;50.204;8.844;2023-03-02T06:11:06;100406.84;;;-0.72;75.30
72570;BME280;60594;50.204;8.844;2023-03-02T06:13:33;100417.97;;;-0.66;75.35
72570;BME280;60594;50.204;8.844;2023-03-02T06:16:00;100400.28;;;-0.58;74.21
72570;BME280;60594;50.204;8.844;2023-03-02T06:18:26;100402.41;;;-0.70;74.98
72570;BME280;60594;50.204;8.844;2023-03-02T06:20:53;100414.41;;;-0.63;74.25
72570;BME280;60594;50.204;8.844;2023-03-02T06:23:19;100414.19;;;-0.56;73.19
72570;BME280;60594;50.204;8.844;2023-03-02T06:25:46;100407.50;;;-0.66;73.96
72570;BME280;60594;50.204;8.844;2023-03-02T06:28:15;100419.50;;;-0.86;75.26
72570;BME280;60594;50.204;8.844;2023-03-02T06:30:44;100412.31;;;-0.80;76.25
72570;BME280;60594;50.204;8.844;2023-03-02T06:33:15;100411.94;;;-0.68;74.83
72570;BME280;60594;50.204;8.844;2023-03-02T06:35:43;100411.75;;;-0.62;73.61
72570;BME280;60594;50.204;8.844;2023-03-02T06:38:10;100414.19;;;-0.56;74.09
72570;BME280;60594;50.204;8.844;2023-03-02T06:40:36;100411.25;;;-0.47;74.33
72570;BME280;60594;50.204;8.844;2023-03-02T06:43:03;100405.09;;;-0.44;73.51
72570;BME280;60594;50.204;8.844;2023-03-02T06:45:29;100415.34;;;-0.38;73.35
72570;BME280;60594;50.204;8.844;2023-03-02T06:47:59;100410.25;;;-0.43;74.56
72570;BME280;60594;50.204;8.844;2023-03-02T06:50:27;100417.13;;;-0.39;73.98
72570;BME280;60594;50.204;8.844;2023-03-02T06:52:54;100411.28;;;-0.48;74.26
72570;BME280;60594;50.204;8.844;2023-03-02T06:55:20;100413.78;;;-0.44;74.34
72570;BME280;60594;50.204;8.844;2023-03-02T06:57:47;100414.63;;;-0.43;74.03
72570;BME280;60594;50.204;8.844;2023-03-02T07:00:14;100418.88;;;-0.39;74.23
72570;BME280;60594;50.204;8.844;2023-03-02T07:02:51;100421.28;;;-0.33;73.74
72570;BME280;60594;50.204;8.844;2023-03-02T07:05:18;100418.56;;;-0.30;73.39
72570;BME280;60594;50.204;8.844;2023-03-02T07:07:45;100411.81;;;-0.37;74.11
72570;BME280;60594;50.204;8.844;2023-03-02T07:10:11;100424.34;;;-0.21;73.33
72570;BME280;60594;50.204;8.844;2023-03-02T07:12:40;100424.25;;;-0.18;73.27
72570;BME280;60594;50.204;8.844;2023-03-02T07:15:08;100424.78;;;-0.08;71.67
72570;BME280;60594;50.204;8.844;2023-03-02T07:17:37;100423.78;;;-0.04;73.27
72570;BME280;60594;50.204;8.844;2023-03-02T07:20:05;100429.47;;;0.08;72.17
72570;BME280;60594;50.204;8.844;2023-03-02T07:22:32;100431.25;;;0.08;72.62
72570;BME280;60594;50.204;8.844;2023-03-02T07:24:58;100421.94;;;-0.01;72.64
72570;BME280;60594;50.204;8.844;2023-03-02T07:27:26;100425.66;;;-0.08;74.05
72570;BME280;60594;50.204;8.844;2023-03-02T07:29:52;100425.28;;;0.03;72.44
72570;BME280;60594;50.204;8.844;2023-03-02T07:32:19;100422.78;;;0.00;74.01
72570;BME280;60594;50.204;8.844;2023-03-02T07:34:45;100422.91;;;-0.03;73.54
72570;BME280;60594;50.204;8.844;2023-03-02T07:37:12;100422.47;;;0.09;72.25
72570;BME280;60594;50.204;8.844;2023-03-02T07:39:38;100416.31;;;0.10;72.97
72570;BME280;60594;50.204;8.844;2023-03-02T07:42:05;100418.78;;;0.15;71.21
72570;BME280;60594;50.204;8.844;2023-03-02T07:44:34;100429.69;;;0.27;71.36
72570;BME280;60594;50.204;8.844;2023-03-02T07:47:00;100420.47;;;0.40;70.34
72570;BME280;60594;50.204;8.844;2023-03-02T07:49:27;100420.16;;;0.49;70.74
72570;BME280;60594;50.204;8.844;2023-03-02T07:51:53;100419.88;;;0.57;70.17
72570;BME280;60594;50.204;8.844;2023-03-02T07:54:20;100417.66;;;0.69;70.04
72570;BME280;60594;50.204;8.844;2023-03-02T07:56:47;100410.88;;;0.64;71.77
72570;BME280;60594;50.204;8.844;2023-03-02T07:59:13;100414.97;;;0.71;70.84
72570;BME280;60594;50.204;8.844;2023-03-02T08:01:40;100420.28;;;0.69;70.18
72570;BME280;60594;50.204;8.844;2023-03-02T08:04:06;100412.09;;;0.78;70.71
72570;BME280;60594;50.204;8.844;2023-03-02T08:06:32;100412.66;;;0.86;70.02
72570;BME280;60594;50.204;8.844;2023-03-02T08:09:01;100405.13;;;1.00;70.28
72570;BME280;60594;50.204;8.844;2023-03-02T08:11:28;100408.19;;;1.11;70.74
72570;BME280;60594;50.204;8.844;2023-03-02T08:13:54;100406.63;;;1.29;68.58
72570;BME280;60594;50.204;8.844;2023-03-02T08:16:21;100406.22;;;1.38;67.59
72570;BME280;60594;50.204;8.844;2023-03-02T08:18:47;100401.97;;;1.35;69.37
72570;BME280;60594;50.204;8.844;2023-03-02T08:21:20;100414.75;;;1.44;68.05
72570;BME280;60594;50.204;8.844;2023-03-02T08:23:47;100407.91;;;1.82;68.49
72570;BME280;60594;50.204;8.844;2023-03-02T08:26:13;100410.88;;;2.16;66.17
72570;BME280;60594;50.204;8.844;2023-03-02T08:28:40;100420.63;;;2.52;64.85
72570;BME280;60594;50.204;8.844;2023-03-02T08:31:08;100410.66;;;2.79;64.83
72570;BME280;60594;50.204;8.844;2023-03-02T08:33:35;100415.91;;;2.97;62.55
72570;BME280;60594;50.204;8.844;2023-03-02T08:36:07;100419.47;;;3.15;63.28
72570;BME280;60594;50.204;8.844;2023-03-02T08:38:34;100409.16;;;3.47;61.82
72570;BME280;60594;50.204;8.844;2023-03-02T08:41:03;100412.28;;;3.72;60.72
72570;BME280;60594;50.204;8.844;2023-03-02T08:43:31;100398.13;;;3.92;60.24
72570;BME280;60594;50.204;8.844;2023-03-02T08:45:58;100408.16;;;4.03;59.90
72570;BME280;60594;50.204;8.844;2023-03-02T08:48:25;100409.38;;;4.30;58.05
72570;BME280;60594;50.204;8.844;2023-03-02T08:51:11;100400.16;;;4.71;57.74
72570;BME280;60594;50.204;8.844;2023-03-02T08:53:40;100383.91;;;4.94;56.78
72570;BME280;60594;50.204;8.844;2023-03-02T08:58:49;100388.13;;;5.44;57.04
72570;BME280;60594;50.204;8.844;2023-03-02T09:01:19;100385.19;;;5.64;55.93
72570;BME280;60594;50.204;8.844;2023-03-02T09:03:46;100375.22;;;5.85;54.79
72570;BME280;60594;50.204;8.844;2023-03-02T09:06:13;100374.31;;;6.00;54.28
72570;BME280;60594;50.204;8.844;2023-03-02T09:08:39;100376.00;;;6.01;54.02
72570;BME280;60594;50.204;8.844;2023-03-02T09:11:06;100369.94;;;6.28;54.06
72570;BME280;60594;50.204;8.844;2023-03-02T09:13:33;100368.25;;;6.41;52.69
72570;BME280;60594;50.204;8.844;2023-03-02T09:16:00;100363.16;;;6.80;52.81
72570;BME280;60594;50.204;8.844;2023-03-02T09:18:28;100357.75;;;6.82;51.80
72570;BME280;60594;50.204;8.844;2023-03-02T09:20:56;100356.25;;;6.92;51.67
72570;BME280;60594;50.204;8.844;2023-03-02T09:23:24;100359.22;;;7.28;51.30
72570;BME280;60594;50.204;8.844;2023-03-02T09:25:52;100358.06;;;7.32;52.13
72570;BME280;60594;50.204;8.844;2023-03-02T09:28:19;100355.06;;;7.24;49.45
72570;BME280;60594;50.204;8.844;2023-03-02T09:30:49;100350.56;;;7.12;52.05
72570;BME280;60594;50.204;8.844;2023-03-02T09:33:15;100356.16;;;7.34;51.04
72570;BME280;60594;50.204;8.844;2023-03-02T09:35:42;100359.41;;;7.25;49.79
72570;BME280;60594;50.204;8.844;2023-03-02T09:38:08;100359.13;;;7.30;50.51
72570;BME280;60594;50.204;8.844;2023-03-02T09:40:46;100365.47;;;7.54;51.92
72570;BME280;60594;50.204;8.844;2023-03-02T09:43:38;100368.22;;;7.52;49.53
72570;BME280;60594;50.204;8.844;2023-03-02T09:48:53;100361.31;;;7.23;50.48
72570;BME280;60594;50.204;8.844;2023-03-02T09:51:40;100357.19;;;7.46;49.58
72570;BME280;60594;50.204;8.844;2023-03-02T09:54:19;100359.34;;;7.92;48.65
72570;BME280;60594;50.204;8.844;2023-03-02T09:56:55;100357.16;;;8.11;47.54
72570;BME280;60594;50.204;8.844;2023-03-02T09:59:33;100362.66;;;8.60;48.20
72570;BME280;60594;50.204;8.844;2023-03-02T10:04:47;100340.31;;;9.36;47.09
72570;BME280;60594;50.204;8.844;2023-03-02T10:09:44;100347.22;;;9.62;47.30
72570;BME280;60594;50.204;8.844;2023-03-02T10:14:58;100343.69;;;10.08;45.93
72570;BME280;60594;50.204;8.844;2023-03-02T10:17:41;100346.63;;;9.93;45.18
72570;BME280;60594;50.204;8.844;2023-03-02T10:20:20;100339.28;;;9.96;44.30
72570;BME280;60594;50.204;8.844;2023-03-02T10:22:58;100338.22;;;9.75;45.46
72570;BME280;60594;50.204;8.844;2023-03-02T10:25:38;100343.25;;;10.14;46.30
72570;BME280;60594;50.204;8.844;2023-03-02T10:28:15;100335.66;;;10.32;45.04
72570;BME280;60594;50.204;8.844;2023-03-02T10:30:44;100329.53;;;10.19;44.23
72570;BME280;60594;50.204;8.844;2023-03-02T10:33:17;100326.28;;;10.15;44.36
72570;BME280;60594;50.204;8.844;2023-03-02T10:35:46;100328.13;;;10.26;45.27
72570;BME280;60594;50.204;8.844;2023-03-02T10:38:15;100329.03;;;10.60;45.34
72570;BME280;60594;50.204;8.844;2023-03-02T10:40:51;100325.75;;;10.89;44.49
72570;BME280;60594;50.204;8.844;2023-03-02T10:43:30;100315.81;;;10.80;45.16
72570;BME280;60594;50.204;8.844;2023-03-02T10:46:03;100312.81;;;10.85;44.13
72570;BME280;60594;50.204;8.844;2023-03-02T10:48:30;100317.03;;;10.76;43.94
72570;BME280;60594;50.204;8.844;2023-03-02T10:50:57;100307.94;;;10.79;44.68
72570;BME280;60594;50.204;8.844;2023-03-02T10:53:24;100311.47;;;10.68;43.53
72570;BME280;60594;50.204;8.844;2023-03-02T10:55:52;100310.97;;;10.85;44.29
72570;BME280;60594;50.204;8.844;2023-03-02T10:58:31;100309.63;;;10.91;43.27
72570;BME280;60594;50.204;8.844;2023-03-02T11:01:03;100308.13;;;11.31;43.76
72570;BME280;60594;50.204;8.844;2023-03-02T11:03:31;100307.94;;;11.54;42.56
72570;BME280;60594;50.204;8.844;2023-03-02T11:06:14;100305.19;;;11.45;42.26
72570;BME280;60594;50.204;8.844;2023-03-02T11:08:41;100292.03;;;11.10;42.43
72570;BME280;60594;50.204;8.844;2023-03-02T11:11:22;100299.72;;;10.82;45.51
72570;BME280;60594;50.204;8.844;2023-03-02T11:13:49;100291.69;;;11.04;44.77
72570;BME280;60594;50.204;8.844;2023-03-02T11:18:56;100287.69;;;11.52;44.29
72570;BME280;60594;50.204;8.844;2023-03-02T11:21:34;100287.88;;;11.71;42.84
72570;BME280;60594;50.204;8.844;2023-03-02T11:24:17;100278.56;;;11.54;45.87
72570;BME280;60594;50.204;8.844;2023-03-02T11:26:55;100276.06;;;11.42;42.37
72570;BME280;60594;50.204;8.844;2023-03-02T11:34:41;100269.13;;;11.08;43.44
72570;BME280;60594;50.204;8.844;2023-03-02T11:37:23;100269.34;;;11.16;44.43
72570;BME280;60594;50.204;8.844;2023-03-02T11:40:03;100259.88;;;11.23;43.36
72570;BME280;60594;50.204;8.844;2023-03-02T11:42:38;100256.56;;;11.30;44.45
72570;BME280;60594;50.204;8.844;2023-03-02T11:45:21;100252.78;;;11.44;44.08
72570;BME280;60594;50.204;8.844;2023-03-02T11:50:21;100248.47;;;11.52;43.92
72570;BME280;60594;50.204;8.844;2023-03-02T11:52:54;100255.06;;;11.80;42.79
72570;BME280;60594;50.204;8.844;2023-03-02T11:55:25;100248.34;;;11.85;43.78
72570;BME280;60594;50.204;8.844;2023-03-02T11:57:58;100254.50;;;11.97;42.70
72570;BME280;60594;50.204;8.844;2023-03-02T12:00:38;100245.97;;;12.03;42.53
72570;BME280;60594;50.204;8.844;2023-03-02T12:05:58;100247.63;;;11.63;42.78
72570;BME280;60594;50.204;8.844;2023-03-02T12:11:03;100237.09;;;11.50;43.97
72570;BME280;60594;50.204;8.844;2023-03-02T12:13:36;100241.75;;;11.69;43.91
72570;BME280;60594;50.204;8.844;2023-03-02T12:16:17;100235.13;;;11.63;43.92
72570;BME280;60594;50.204;8.844;2023-03-02T12:18:50;100238.28;;;11.57;43.98
72570;BME280;60594;50.204;8.844;2023-03-02T12:21:23;100226.81;;;11.46;44.99
72570;BME280;60594;50.204;8.844;2023-03-02T12:31:52;100215.75;;;11.82;45.01
72570;BME280;60594;50.204;8.844;2023-03-02T12:34:38;100221.06;;;11.82;42.33
72570;BME280;60594;50.204;8.844;2023-03-02T12:37:11;100217.22;;;11.75;42.69
72570;BME280;60594;50.204;8.844;2023-03-02T12:46:19;100203.44;;;11.90;43.49
72570;BME280;60594;50.204;8.844;2023-03-02T12:49:52;100192.28;;;11.85;43.15
72570;BME280;60594;50.204;8.844;2023-03-02T12:52:00;100190.41;;;11.76;43.72
72570;BME280;60594;50.204;8.844;2023-03-02T12:54:32;100181.66;;;11.74;43.01
72570;BME280;60594;50.204;8.844;2023-03-02T12:57:18;100175.81;;;11.80;44.05
72570;BME280;60594;50.204;8.844;2023-03-02T12:59:53;100173.31;;;11.88;44.62
72570;BME280;60594;50.204;8.844;2023-03-02T13:02:22;100171.19;;;12.03;46.49
72570;BME280;60594;50.204;8.844;2023-03-02T13:04:54;100171.19;;;12.03;44.68
72570;BME280;60594;50.204;8.844;2023-03-02T13:07:27;100160.78;;;12.09;46.58
72570;BME280;60594;50.204;8.844;2023-03-02T13:09:57;100151.97;;;12.18;45.95
72570;BME280;60594;50.204;8.844;2023-03-02T13:12:26;100167.78;;;12.31;45.26
72570;BME280;60594;50.204;8.844;2023-03-02T13:14:56;100158.50;;;12.35;44.61
72570;BME280;60594;50.204;8.844;2023-03-02T13:17:26;100157.72;;;12.44;45.27
72570;BME280;60594;50.204;8.844;2023-03-02T13:20:00;100153.06;;;12.46;45.61
72570;BME280;60594;50.204;8.844;2023-03-02T13:22:29;100145.31;;;12.43;43.90
72570;BME280;60594;50.204;8.844;2023-03-02T13:25:01;100152.00;;;12.28;44.45
72570;BME280;60594;50.204;8.844;2023-03-02T13:27:30;100152.47;;;12.33;45.18
72570;BME280;60594;50.204;8.844;2023-03-02T13:30:07;100147.50;;;12.28;45.01
72570;BME280;60594;50.204;8.844;2023-03-02T13:32:38;100155.44;;;12.39;45.10
72570;BME280;60594;50.204;8.844;2023-03-02T13:35:15;100151.59;;;12.32;46.44
72570;BME280;60594;50.204;8.844;2023-03-02T13:37:44;100137.34;;;12.22;45.04
72570;BME280;60594;50.204;8.844;2023-03-02T13:42:53;100147.53;;;12.38;46.52
72570;BME280;60594;50.204;8.844;2023-03-02T13:45:28;100147.28;;;12.41;44.61
72570;BME280;60594;50.204;8.844;2023-03-02T13:48:00;100135.78;;;12.59;45.94
72570;BME280;60594;50.204;8.844;2023-03-02T13:50:37;100135.50;;;12.53;44.68
72570;BME280;60594;50.204;8.844;2023-03-02T13:53:04;100137.47;;;12.51;46.11
72570;BME280;60594;50.204;8.844;2023-03-02T13:55:33;100134.78;;;12.41;44.33
72570;BME280;60594;50.204;8.844;2023-03-02T13:58:00;100131.25;;;12.41;43.57
72570;BME280;60594;50.204;8.844;2023-03-02T14:00:33;100121.69;;;12.38;43.63
72570;BME280;60594;50.204;8.844;2023-03-02T14:03:00;100130.19;;;12.23;45.58